Time;durP1;ratioP1;P1;durP2;ratioP2;P2;SDS_P1;SDS_P2;PMS_P1;PMS_P2;Temp;Humidity;BMP_temperature;BMP_pressure;BME280_temperature;BME280_humidity;BME280_pressure;Samples;Min_cycle;Max_cycle;Signal;HPM_P1;HPM_P2
2023/03/16 00:00:43;;;;;;;4.70;1.02;;;0.10;95.30;;;;;;5074073;28;20031;-76
2023/03/16 00:03:18;;;;;;;4.05;1.15;;;0.00;95.50;;;;;;5074176;28;20396;-76
2023/03/16 00:05:48;;;;;;;4.25;1.17;;;0.30;95.70;;;;;;5073237;28;20013;-76
2023/03/16 00:08:15;;;;;;;2.05;1.45;;;-0.10;95.60;;;;;;5073531;28;20028;-75
2023/03/16 00:10:45;;;;;;;1.20;0.82;;;-0.10;96.20;;;;;;5073452;28;20063;-76
2023/03/16 00:13:15;;;;;;;1.27;1.17;;;0.00;96.00;;;;;;5073764;28;20074;-76
2023/03/16 00:15:49;;;;;;;3.05;1.15;;;-0.20;96.30;;;;;;5073248;28;20593;-77
2023/03/16 00:18:15;;;;;;;2.17;1.00;;;-0.10;96.40;;;;;;5072745;28;20028;-76
2023/03/16 00:20:40;;;;;;;0.95;0.80;;;-0.10;96.60;;;;;;5073072;28;20016;-76
2023/03/16 00:23:06;;;;;;;0.90;0.90;;;0.70;96.80;;;;;;5073443;28;20028;-78
2023/03/16 00:25:32;;;;;;;1.10;0.90;;;-0.10;96.60;;;;;;5074154;28;20033;-78
2023/03/16 00:27:58;;;;;;;1.88;0.95;;;-0.10;96.60;;;;;;5073447;28;20017;-76
2023/03/16 00:30:24;;;;;;;0.70;0.70;;;0.40;96.90;;;;;;5073407;28;20082;-76
2023/03/16 00:32:52;;;;;;;1.70;1.00;;;0.00;97.00;;;;;;5073402;28;20029;-78
2023/03/16 00:35:18;;;;;;;1.55;0.90;;;0.30;96.40;;;;;;5072993;28;20074;-76
2023/03/16 00:37:44;;;;;;;1.17;1.17;;;0.30;96.00;;;;;;5072703;28;20024;-76
2023/03/16 00:40:11;;;;;;;1.23;0.93;;;0.40;96.10;;;;;;5072995;28;20029;-76
2023/03/16 00:42:37;;;;;;;1.13;0.88;;;-0.20;96.00;;;;;;5072929;28;20416;-76
2023/03/16 00:45:04;;;;;;;1.15;0.80;;;0.20;96.40;;;;;;5071151;28;20024;-78
2023/03/16 00:47:32;;;;;;;4.25;1.17;;;-0.10;96.20;;;;;;5073007;28;20019;-77
2023/03/16 00:49:59;;;;;;;2.30;1.27;;;-0.20;96.30;;;;;;5072870;28;20108;-76
2023/03/16 00:52:26;;;;;;;1.90;1.17;;;-0.30;96.50;;;;;;5073073;28;20036;-76
2023/03/16 00:54:52;;;;;;;1.27;1.10;;;-0.40;96.90;;;;;;5072550;28;20036;-76
2023/03/16 00:57:20;;;;;;;3.38;1.27;;;-0.40;97.20;;;;;;5072076;28;20740;-76
2023/03/16 00:59:46;;;;;;;2.20;0.95;;;-0.10;98.00;;;;;;5072779;28;20024;-77
2023/03/16 01:02:14;;;;;;;2.17;0.90;;;-0.40;98.60;;;;;;5072842;28;20024;-76
2023/03/16 01:04:40;;;;;;;0.82;0.82;;;-0.10;99.20;;;;;;5072447;28;20028;-76
2023/03/16 01:07:12;;;;;;;0.90;0.65;;;0.00;99.90;;;;;;5072631;28;20060;-76
2023/03/16 01:09:39;;;;;;;0.60;0.60;;;-0.40;99.80;;;;;;5070384;28;20020;-76
2023/03/16 01:12:13;;;;;;;1.15;0.70;;;0.00;99.90;;;;;;5072265;28;20389;-76
2023/03/16 01:14:40;;;;;;;1.40;0.70;;;-0.40;99.90;;;;;;5072082;28;20493;-76
2023/03/16 01:17:07;;;;;;;2.05;1.00;;;-0.40;99.90;;;;;;5072263;28;20021;-76
2023/03/16 01:19:34;;;;;;;6.50;0.63;;;-0.50;99.90;;;;;;5070697;28;20039;-76
2023/03/16 01:22:01;;;;;;;1.27;0.75;;;-0.40;99.90;;;;;;5072174;28;20095;-76
2023/03/16 01:24:27;;;;;;;2.67;1.02;;;-0.10;99.90;;;;;;5071927;28;20111;-76
2023/03/16 01:26:53;;;;;;;1.83;0.90;;;-0.20;99.90;;;;;;5072037;28;20024;-76
2023/03/16 01:29:18;;;;;;;1.90;0.90;;;-0.50;99.90;;;;;;5071819;28;20535;-77
2023/03/16 01:31:44;;;;;;;1.58;0.75;;;-0.50;99.90;;;;;;5071941;28;20067;-76
2023/03/16 01:34:15;;;;;;;0.80;0.80;;;0.00;99.90;;;;;;5071890;28;20024;-76
2023/03/16 01:36:43;;;;;;;5.75;0.90;;;-0.50;99.90;;;;;;5071724;28;20018;-77
2023/03/16 01:39:10;;;;;;;1.52;1.02;;;-0.40;99.90;;;;;;5071295;28;20115;-77
2023/03/16 01:41:36;;;;;;;5.75;1.15;;;-0.60;99.90;;;;;;5071989;28;20052;-78
2023/03/16 01:44:02;;;;;;;3.00;1.00;;;-0.70;99.90;;;;;;5072130;28;20059;-76
2023/03/16 01:46:28;;;;;;;1.58;1.00;;;-0.40;99.90;;;;;;5069541;28;20049;-77
2023/03/16 01:49:16;;;;;;;3.50;1.45;;;-0.90;99.90;;;;;;5071620;28;20017;-77
2023/03/16 01:51:52;;;;;;;2.35;1.27;;;-1.00;99.90;;;;;;5070460;28;20025;-76
2023/03/16 01:54:55;;;;;;;;;;;-1.00;99.90;;;;;;5072438;28;20020;-76
2023/03/16 01:57:29;;;;;;;1.33;0.93;;;-1.00;99.90;;;;;;5049015;28;20015;-77
2023/03/16 02:00:22;;;;;;;1.75;1.05;;;-1.00;99.90;;;;;;5049570;28;20032;-77
2023/03/16 02:02:58;;;;;;;2.08;0.98;;;-1.10;99.90;;;;;;5065060;28;20519;-76
2023/03/16 02:05:34;;;;;;;6.63;1.20;;;-1.10;99.90;;;;;;5071350;28;20035;-76
2023/03/16 02:08:02;;;;;;;2.97;1.60;;;-1.10;99.90;;;;;;5071329;28;20033;-75
2023/03/16 02:10:28;;;;;;;4.22;1.15;;;-1.10;99.90;;;;;;5071572;28;20036;-76
2023/03/16 02:12:54;;;;;;;5.00;1.23;;;-1.00;99.90;;;;;;5071660;28;20032;-77
2023/03/16 02:15:20;;;;;;;4.05;1.02;;;-1.00;99.90;;;;;;5071298;28;20121;-77
2023/03/16 02:17:47;;;;;;;6.03;0.90;;;-1.00;99.90;;;;;;5071191;28;20609;-77
2023/03/16 02:20:34;;;;;;;1.00;0.77;;;-1.10;99.90;;;;;;5071421;28;20078;-76
2023/03/16 02:23:02;;;;;;;1.15;0.90;;;-1.10;99.90;;;;;;5071863;28;20733;-78
2023/03/16 02:25:44;;;;;;;1.65;1.08;;;-1.10;99.90;;;;;;5071466;28;20021;-76
2023/03/16 02:28:17;;;;;;;2.80;0.85;;;-1.20;99.90;;;;;;5071293;28;20024;-76
2023/03/16 02:30:43;;;;;;;1.02;0.88;;;-1.40;99.90;;;;;;5071662;28;20070;-76
2023/03/16 02:33:09;;;;;;;2.58;1.00;;;-1.40;99.90;;;;;;5071618;28;20036;-76
2023/03/16 02:35:34;;;;;;;1.35;0.98;;;-1.40;99.90;;;;;;5071531;28;20021;-77
2023/03/16 02:38:00;;;;;;;2.05;0.90;;;-1.40;99.90;;;;;;5071202;28;20032;-76
2023/03/16 02:40:32;;;;;;;0.85;0.57;;;-1.40;99.90;;;;;;5071982;28;20420;-77
2023/03/16 02:43:22;;;;;;;0.77;0.70;;;-1.50;99.90;;;;;;5072311;28;20024;-76
2023/03/16 02:45:58;;;;;;;0.70;0.40;;;-1.60;99.90;;;;;;5073621;28;20078;-75
2023/03/16 02:48:36;;;;;;;0.40;0.40;;;-1.60;99.90;;;;;;5077411;28;20021;-76
2023/03/16 02:51:02;;;;;;;0.60;0.52;;;-1.70;99.90;;;;;;5077239;28;20052;-76
2023/03/16 02:53:27;;;;;;;1.88;1.17;;;-1.80;99.90;;;;;;5075278;28;20064;-75
2023/03/16 02:55:53;;;;;;;5.13;1.10;;;-1.10;99.90;;;;;;5076486;28;20073;-76
2023/03/16 02:58:19;;;;;;;1.58;0.55;;;-1.80;99.90;;;;;;5077160;28;20028;-75
2023/03/16 03:00:44;;;;;;;2.03;1.40;;;-1.90;99.90;;;;;;5077418;28;20031;-75
2023/03/16 03:03:10;;;;;;;1.88;1.35;;;-1.90;99.90;;;;;;5077457;28;20028;-75
2023/03/16 03:05:36;;;;;;;1.65;1.27;;;-1.90;99.90;;;;;;5077284;28;20491;-75
2023/03/16 03:08:03;;;;;;;3.05;1.00;;;-1.80;99.90;;;;;;5077194;28;20031;-75
2023/03/16 03:10:29;;;;;;;1.13;0.65;;;-1.80;99.90;;;;;;5076030;28;20052;-74
2023/03/16 03:12:56;;;;;;;1.17;0.80;;;-1.80;99.90;;;;;;5078296;28;20028;-77
2023/03/16 03:15:22;;;;;;;2.00;1.20;;;-1.80;99.90;;;;;;5078154;28;20024;-75
2023/03/16 03:17:48;;;;;;;1.58;0.90;;;-1.80;99.90;;;;;;5077642;28;20033;-76
2023/03/16 03:20:17;;;;;;;0.55;0.55;;;-1.80;99.90;;;;;;5077772;28;20052;-76
2023/03/16 03:22:45;;;;;;;0.43;0.43;;;-1.90;99.90;;;;;;5078927;28;20050;-74
2023/03/16 03:25:13;;;;;;;0.40;0.40;;;-1.90;99.90;;;;;;5087315;28;20004;-75
2023/03/16 03:27:41;;;;;;;0.70;0.45;;;-1.90;99.90;;;;;;5083031;28;20097;-75
2023/03/16 03:30:11;;;;;;;1.35;0.57;;;-1.90;99.90;;;;;;5074748;28;20374;-75
2023/03/16 03:32:37;;;;;;;0.60;0.60;;;-1.90;99.90;;;;;;5074684;28;20024;-77
2023/03/16 03:35:03;;;;;;;0.73;0.73;;;-1.90;99.90;;;;;;5073924;28;20024;-76
2023/03/16 03:37:30;;;;;;;1.02;0.90;;;-1.90;99.90;;;;;;5073905;28;20044;-77
2023/03/16 03:39:55;;;;;;;0.60;0.60;;;-2.00;99.90;;;;;;5073957;28;20068;-77
2023/03/16 03:42:22;;;;;;;1.10;0.95;;;-2.00;99.90;;;;;;5074103;28;20024;-76
2023/03/16 03:44:51;;;;;;;2.28;1.02;;;-2.00;99.90;;;;;;5073726;28;20048;-75
2023/03/16 03:47:18;;;;;;;0.98;0.57;;;-2.00;99.90;;;;;;5072040;28;20100;-75
2023/03/16 03:49:43;;;;;;;0.30;0.30;;;-2.00;99.90;;;;;;5073957;28;20024;-76
2023/03/16 03:52:09;;;;;;;0.32;0.32;;;-2.00;99.90;;;;;;5074109;28;20023;-76
2023/03/16 03:54:35;;;;;;;0.43;0.43;;;-2.00;99.90;;;;;;5073834;28;20020;-75
2023/03/16 03:57:02;;;;;;;0.65;0.60;;;-2.10;99.90;;;;;;5072811;28;20021;-76
2023/03/16 03:59:28;;;;;;;1.10;0.95;;;-2.10;99.90;;;;;;5073313;28;20024;-78
2023/03/16 04:01:54;;;;;;;0.60;0.60;;;-2.10;99.90;;;;;;5073758;28;20499;-76
2023/03/16 04:04:20;;;;;;;0.77;0.77;;;-2.10;99.90;;;;;;5073738;28;20455;-75
2023/03/16 04:06:45;;;;;;;1.55;0.75;;;-2.00;99.90;;;;;;5073409;28;20024;-76
2023/03/16 04:09:11;;;;;;;3.35;1.35;;;-1.90;99.90;;;;;;5073762;28;20017;-76
2023/03/16 04:11:37;;;;;;;3.35;0.63;;;-1.90;99.90;;;;;;5073768;28;20024;-76
2023/03/16 04:14:03;;;;;;;0.60;0.60;;;-1.80;99.90;;;;;;5073427;28;20369;-76
2023/03/16 04:16:29;;;;;;;1.25;0.70;;;-1.80;99.90;;;;;;5073250;28;20401;-76
2023/03/16 04:18:55;;;;;;;0.60;0.60;;;-1.60;99.90;;;;;;5073176;28;20021;-76
2023/03/16 04:21:21;;;;;;;1.60;0.82;;;-1.90;99.90;;;;;;5073343;28;20028;-78
2023/03/16 04:23:48;;;;;;;2.05;1.38;;;-1.90;99.90;;;;;;5073487;28;20017;-76
2023/03/16 04:26:15;;;;;;;1.27;1.17;;;-1.80;99.90;;;;;;5073033;28;20025;-76
2023/03/16 04:28:42;;;;;;;0.73;0.73;;;-2.00;99.90;;;;;;5073831;28;20017;-75
2023/03/16 04:31:09;;;;;;;1.50;0.90;;;-1.30;99.90;;;;;;5076616;28;20431;-76
2023/03/16 04:33:37;;;;;;;6.70;2.42;;;-1.90;99.90;;;;;;5074032;28;20449;-76
2023/03/16 04:36:04;;;;;;;2.45;1.50;;;-1.80;99.90;;;;;;5073641;28;20059;-75
2023/03/16 04:38:34;;;;;;;1.48;1.38;;;-2.00;99.90;;;;;;5073814;28;20028;-76
2023/03/16 04:41:02;;;;;;;2.50;1.52;;;-1.90;99.90;;;;;;5072698;28;20043;-76
2023/03/16 04:43:28;;;;;;;2.65;1.40;;;-1.90;99.90;;;;;;5074153;28;20070;-77
2023/03/16 04:45:54;;;;;;;2.33;1.20;;;-1.90;99.90;;;;;;5073532;28;20040;-75
2023/03/16 04:48:19;;;;;;;6.97;1.70;;;-1.80;99.90;;;;;;5073357;28;20048;-75
2023/03/16 04:50:47;;;;;;;2.83;1.30;;;-1.90;99.90;;;;;;5073733;28;20099;-76
2023/03/16 04:53:13;;;;;;;3.85;1.52;;;-1.90;99.90;;;;;;5073384;28;20503;-75
2023/03/16 04:55:38;;;;;;;2.50;1.60;;;-1.90;99.90;;;;;;5073156;28;20033;-75
2023/03/16 04:58:04;;;;;;;1.00;0.52;;;-1.90;99.90;;;;;;5068879;28;20040;-75
2023/03/16 05:00:30;;;;;;;1.80;1.08;;;-2.00;99.90;;;;;;5052295;28;20025;-77
2023/03/16 05:02:56;;;;;;;2.55;1.70;;;-2.00;99.90;;;;;;5054859;28;20028;-75
2023/03/16 05:05:22;;;;;;;7.32;3.33;;;-1.90;99.90;;;;;;5053941;28;20342;-75
2023/03/16 05:07:48;;;;;;;8.57;3.33;;;-1.80;99.90;;;;;;5054219;28;20028;-75
2023/03/16 05:10:18;;;;;;;8.20;3.17;;;-1.90;99.90;;;;;;5053682;28;20053;-75
2023/03/16 05:12:44;;;;;;;6.25;2.83;;;-1.90;99.90;;;;;;5053147;28;20091;-75
2023/03/16 05:15:10;;;;;;;4.07;2.65;;;-1.90;99.90;;;;;;5053121;28;20107;-75
2023/03/16 05:17:36;;;;;;;3.22;1.92;;;-2.00;99.90;;;;;;5052522;28;20032;-76
2023/03/16 05:20:06;;;;;;;2.92;1.58;;;-2.00;99.90;;;;;;5053823;28;20025;-75
2023/03/16 05:22:34;;;;;;;2.90;2.13;;;-2.00;99.90;;;;;;5053288;28;20449;-76
2023/03/16 05:25:03;;;;;;;3.75;1.90;;;-2.00;99.90;;;;;;5053255;28;20025;-76
2023/03/16 05:27:29;;;;;;;3.78;1.80;;;-2.00;99.90;;;;;;5052516;28;20020;-76
2023/03/16 05:29:55;;;;;;;3.40;1.80;;;-2.00;99.90;;;;;;5052586;28;20017;-76
2023/03/16 05:32:20;;;;;;;5.32;1.98;;;-2.00;99.90;;;;;;5057084;28;20025;-76
2023/03/16 05:34:46;;;;;;;5.05;2.47;;;-2.00;99.90;;;;;;5065409;28;20066;-75
2023/03/16 05:37:12;;;;;;;5.00;2.40;;;-1.90;99.90;;;;;;5072463;28;20024;-76
2023/03/16 05:39:38;;;;;;;3.15;2.38;;;-1.90;99.90;;;;;;5071963;28;20407;-76
2023/03/16 05:42:04;;;;;;;4.30;2.30;;;-1.90;99.90;;;;;;5072922;28;20107;-76
2023/03/16 05:44:32;;;;;;;2.17;1.63;;;-1.80;99.90;;;;;;5072957;28;20109;-77
2023/03/16 05:46:58;;;;;;;3.42;1.90;;;-1.80;99.90;;;;;;5072696;28;20027;-76
2023/03/16 05:49:23;;;;;;;5.15;2.30;;;-1.70;99.90;;;;;;5072162;28;20476;-76
2023/03/16 05:51:49;;;;;;;3.92;2.00;;;-1.70;99.90;;;;;;5073610;28;20021;-75
2023/03/16 05:54:15;;;;;;;7.03;2.80;;;-1.70;99.90;;;;;;5073386;28;20430;-75
2023/03/16 05:56:40;;;;;;;5.95;3.13;;;-1.60;99.90;;;;;;5073154;28;20521;-76
2023/03/16 05:59:06;;;;;;;8.85;2.33;;;-1.60;99.90;;;;;;5072371;28;20064;-76
2023/03/16 06:01:33;;;;;;;4.65;2.22;;;-1.50;99.90;;;;;;5072357;28;20480;-76
2023/03/16 06:03:59;;;;;;;6.13;2.45;;;-1.40;99.90;;;;;;5072554;28;20477;-75
2023/03/16 06:06:25;;;;;;;3.22;1.95;;;-1.40;99.90;;;;;;5072013;28;20434;-77
2023/03/16 06:08:51;;;;;;;6.45;2.72;;;-1.20;99.90;;;;;;5071581;28;20020;-76
2023/03/16 06:11:17;;;;;;;5.72;2.50;;;-1.10;99.90;;;;;;5072080;28;20016;-76
2023/03/16 06:13:42;;;;;;;9.38;4.32;;;-1.10;99.90;;;;;;5072184;28;20433;-76
2023/03/16 06:16:12;;;;;;;9.45;3.08;;;-0.90;99.90;;;;;;5071631;28;20017;-76
2023/03/16 06:18:38;;;;;;;4.93;2.45;;;-0.90;99.90;;;;;;5073827;28;20017;-78
2023/03/16 06:21:04;;;;;;;4.93;3.65;;;-0.20;99.90;;;;;;5074507;28;20053;-77
2023/03/16 06:23:30;;;;;;;11.85;2.50;;;-0.50;99.90;;;;;;5059307;28;20025;-77
2023/03/16 06:25:58;;;;;;;3.83;2.58;;;0.50;99.90;;;;;;5058031;28;20397;-78
2023/03/16 06:28:23;;;;;;;5.03;2.20;;;0.60;99.90;;;;;;5057807;28;20017;-78
2023/03/16 06:30:53;;;;;;;3.05;1.75;;;0.30;99.90;;;;;;5059503;28;20017;-77
2023/03/16 06:33:18;;;;;;;5.30;2.92;;;0.40;99.90;;;;;;5056387;28;20481;-77
2023/03/16 06:35:45;;;;;;;3.08;1.90;;;0.40;99.90;;;;;;5056703;28;20078;-77
2023/03/16 06:38:10;;;;;;;2.55;1.83;;;0.40;99.90;;;;;;5056767;28;20108;-77
2023/03/16 06:40:36;;;;;;;4.15;2.00;;;0.40;99.90;;;;;;5057282;28;20060;-77
2023/03/16 06:43:02;;;;;;;2.40;1.15;;;0.50;99.90;;;;;;5057381;28;20055;-77
2023/03/16 06:45:27;;;;;;;4.72;1.75;;;0.70;99.90;;;;;;5057427;28;20062;-77
2023/03/16 06:47:53;;;;;;;1.50;1.30;;;0.80;99.90;;;;;;5057533;28;20047;-77
2023/03/16 06:50:19;;;;;;;2.95;1.58;;;0.90;99.90;;;;;;5057689;28;20096;-77
2023/03/16 06:52:44;;;;;;;2.42;1.70;;;1.00;99.90;;;;;;5058068;28;20025;-77
2023/03/16 06:55:11;;;;;;;1.50;0.95;;;1.10;99.90;;;;;;5058672;28;20416;-78
2023/03/16 06:57:37;;;;;;;2.33;1.52;;;1.30;99.90;;;;;;5057667;28;20052;-77
2023/03/16 07:00:04;;;;;;;2.95;2.13;;;1.50;99.90;;;;;;5058534;28;20033;-77
2023/03/16 07:02:31;;;;;;;5.55;1.63;;;1.70;99.90;;;;;;5055553;28;20025;-77
2023/03/16 07:04:56;;;;;;;4.93;1.52;;;1.90;99.90;;;;;;5053179;28;20018;-76
2023/03/16 07:07:23;;;;;;;1.40;1.30;;;2.00;99.90;;;;;;5053709;28;20029;-76
2023/03/16 07:09:48;;;;;;;3.67;1.77;;;2.10;99.10;;;;;;5054119;28;20608;-77
2023/03/16 07:12:14;;;;;;;3.83;1.90;;;2.30;97.70;;;;;;5052523;28;20022;-76
2023/03/16 07:14:41;;;;;;;3.88;1.60;;;2.40;97.40;;;;;;5053738;28;20029;-76
2023/03/16 07:17:07;;;;;;;3.60;1.50;;;2.80;96.60;;;;;;5053541;28;20032;-76
2023/03/16 07:19:32;;;;;;;2.92;1.85;;;2.60;94.40;;;;;;5053039;28;20032;-76
2023/03/16 07:21:58;;;;;;;3.67;2.10;;;2.80;93.10;;;;;;5053568;28;20393;-77
2023/03/16 07:24:24;;;;;;;3.63;1.63;;;2.80;92.80;;;;;;5053508;28;20393;-76
2023/03/16 07:26:49;;;;;;;1.65;1.27;;;3.00;92.70;;;;;;5053159;28;20080;-75
2023/03/16 07:29:16;;;;;;;15.60;2.40;;;3.10;91.10;;;;;;5052535;28;20021;-78
2023/03/16 07:31:41;;;;;;;3.60;1.60;;;3.20;91.10;;;;;;5056278;28;20551;-78
2023/03/16 07:34:07;;;;;;;1.33;1.20;;;3.40;90.90;;;;;;5057511;28;20025;-77
2023/03/16 07:36:33;;;;;;;2.53;1.02;;;3.50;89.10;;;;;;5057330;28;20453;-77
2023/03/16 07:39:00;;;;;;;1.48;1.20;;;3.70;87.20;;;;;;5057473;28;20029;-77
2023/03/16 07:41:25;;;;;;;1.55;0.80;;;3.80;82.80;;;;;;5058404;28;20025;-77
2023/03/16 07:43:52;;;;;;;0.70;0.70;;;3.90;77.90;;;;;;5058056;28;20575;-77
2023/03/16 07:46:18;;;;;;;0.70;0.50;;;4.20;79.10;;;;;;5057666;28;20374;-77
2023/03/16 07:48:44;;;;;;;0.75;0.75;;;4.30;78.00;;;;;;5057772;28;20028;-77
2023/03/16 07:51:11;;;;;;;1.73;0.70;;;4.40;75.00;;;;;;5056082;28;20040;-77
2023/03/16 07:53:38;;;;;;;0.63;0.60;;;4.60;71.60;;;;;;5058526;28;20021;-77
2023/03/16 07:56:04;;;;;;;0.70;0.70;;;4.70;70.70;;;;;;5057644;28;20104;-77
2023/03/16 07:58:30;;;;;;;0.98;0.88;;;4.80;69.50;;;;;;5057761;28;20081;-77
2023/03/16 08:00:57;;;;;;;0.60;0.60;;;4.90;69.80;;;;;;5058350;28;20108;-78
2023/03/16 08:03:27;;;;;;;1.05;0.47;;;5.00;69.70;;;;;;5059071;28;20116;-77
2023/03/16 08:05:54;;;;;;;0.63;0.63;;;5.00;65.90;;;;;;5058943;28;20474;-77
2023/03/16 08:08:21;;;;;;;2.13;0.95;;;5.00;68.80;;;;;;5058204;28;20480;-77
2023/03/16 08:10:51;;;;;;;4.35;0.80;;;5.20;70.30;;;;;;5058340;28;20398;-76
2023/03/16 08:13:17;;;;;;;1.73;0.60;;;5.30;68.20;;;;;;5059003;28;20163;-77
2023/03/16 08:15:57;;;;;;;1.00;0.75;;;5.40;67.60;;;;;;5058798;28;20029;-77
2023/03/16 08:18:23;;;;;;;0.75;0.75;;;5.50;66.60;;;;;;5058506;28;20501;-77
2023/03/16 08:20:49;;;;;;;0.75;0.57;;;5.50;67.10;;;;;;5059230;28;20107;-77
2023/03/16 08:23:16;;;;;;;1.40;1.00;;;5.50;66.20;;;;;;5059138;28;20064;-77
2023/03/16 08:25:41;;;;;;;1.95;0.90;;;5.50;64.70;;;;;;5058249;28;20099;-77
2023/03/16 08:28:08;;;;;;;3.17;0.93;;;5.50;64.60;;;;;;5059477;28;20049;-77
2023/03/16 08:30:34;;;;;;;1.35;0.68;;;5.60;65.00;;;;;;5057953;28;20025;-77
2023/03/16 08:33:02;;;;;;;0.77;0.73;;;5.50;64.20;;;;;;5056644;28;20482;-77
2023/03/16 08:35:28;;;;;;;0.65;0.65;;;5.60;64.20;;;;;;5054605;28;20485;-77
2023/03/16 08:37:55;;;;;;;2.15;0.77;;;5.60;65.50;;;;;;5057248;28;20029;-77
2023/03/16 08:40:21;;;;;;;0.82;0.60;;;5.70;66.70;;;;;;5055698;28;20454;-76
2023/03/16 08:42:51;;;;;;;1.55;0.80;;;5.90;64.80;;;;;;5052958;28;20079;-76
2023/03/16 08:45:18;;;;;;;1.65;0.77;;;5.70;64.10;;;;;;5054282;28;20021;-77
2023/03/16 08:47:44;;;;;;;0.65;0.65;;;6.60;92.60;;;;;;5055603;28;20028;-77
2023/03/16 08:50:12;;;;;;;0.90;0.80;;;7.70;74.60;;;;;;5054248;28;20025;-77
2023/03/16 08:52:37;;;;;;;1.75;0.68;;;7.50;62.70;;;;;;5053702;28;20083;-77
2023/03/16 08:55:04;;;;;;;0.57;0.57;;;7.00;60.50;;;;;;5053459;28;20428;-77
2023/03/16 08:57:33;;;;;;;0.73;0.57;;;6.70;61.70;;;;;;5053386;28;20052;-75
2023/03/16 08:59:59;;;;;;;2.35;0.90;;;6.60;61.60;;;;;;5053434;28;20481;-76
2023/03/16 09:02:25;;;;;;;1.13;0.50;;;6.60;60.50;;;;;;5052315;28;20404;-77
2023/03/16 09:04:51;;;;;;;0.73;0.73;;;6.80;61.30;;;;;;5055565;28;20043;-76
2023/03/16 09:07:17;;;;;;;1.65;0.85;;;6.80;58.60;;;;;;5066095;28;20032;-76
2023/03/16 09:09:44;;;;;;;1.00;0.55;;;6.90;59.00;;;;;;5071851;28;20021;-77
2023/03/16 09:12:09;;;;;;;0.98;0.70;;;7.10;61.40;;;;;;5064685;28;20040;-77
2023/03/16 09:14:37;;;;;;;0.77;0.60;;;7.00;57.60;;;;;;5052060;28;20029;-76
2023/03/16 09:17:04;;;;;;;0.77;0.60;;;6.90;57.60;;;;;;5051754;28;20025;-77
2023/03/16 09:19:32;;;;;;;1.13;0.70;;;6.80;57.80;;;;;;5047641;28;20021;-77
2023/03/16 09:21:58;;;;;;;2.67;0.80;;;6.80;58.00;;;;;;5052318;28;20021;-77
2023/03/16 09:24:24;;;;;;;0.88;0.65;;;6.90;59.80;;;;;;5047721;28;20029;-77
2023/03/16 09:26:50;;;;;;;2.83;1.35;;;7.00;60.20;;;;;;5047133;28;20044;-77
2023/03/16 09:29:17;;;;;;;4.78;0.50;;;7.20;59.00;;;;;;5047358;28;20049;-77
2023/03/16 09:31:44;;;;;;;2.85;1.20;;;7.50;64.00;;;;;;5051958;28;20112;-76
2023/03/16 09:34:10;;;;;;;1.45;0.68;;;7.50;56.40;;;;;;5053730;28;20017;-76
2023/03/16 09:36:36;;;;;;;0.70;0.70;;;7.40;55.90;;;;;;5053455;28;20025;-77
2023/03/16 09:39:02;;;;;;;1.63;0.98;;;7.30;55.80;;;;;;5013075;28;1134739;-77
2023/03/16 09:41:57;;;;;;;1.33;0.80;;;7.30;55.50;;;;;;5054641;28;20108;-76
2023/03/16 09:44:42;;;;;;;2.85;0.82;;;7.40;55.60;;;;;;5054427;28;20017;-77
2023/03/16 09:47:10;;;;;;;0.60;0.60;;;7.30;56.00;;;;;;5053205;28;20025;-77
2023/03/16 09:49:46;;;;;;;0.85;0.75;;;7.30;55.00;;;;;;5054759;28;20104;-77
2023/03/16 09:52:39;;;;;;;0.70;0.55;;;7.20;54.30;;;;;;5054648;28;20081;-77
2023/03/16 09:55:30;;;;;;;0.38;0.38;;;7.40;53.00;;;;;;5054714;28;20025;-78
2023/03/16 09:57:57;;;;;;;1.02;0.70;;;7.40;53.60;;;;;;5056962;28;20021;-78
2023/03/16 10:00:25;;;;;;;2.97;1.35;;;7.50;53.60;;;;;;5057144;28;20025;-78
2023/03/16 10:03:04;;;;;;;1.17;0.50;;;7.50;53.00;;;;;;5054137;28;20029;-76
2023/03/16 10:05:31;;;;;;;0.93;0.82;;;8.10;61.80;;;;;;5053455;28;20086;-77
2023/03/16 10:08:11;;;;;;;1.00;0.88;;;8.30;56.30;;;;;;5051506;28;20060;-77
2023/03/16 10:10:43;;;;;;;1.92;1.00;;;8.80;57.00;;;;;;5052143;28;20427;-77
2023/03/16 10:13:38;;;;;;;1.25;0.82;;;9.00;54.10;;;;;;5052188;28;20017;-77
2023/03/16 10:16:40;;;;;;;1.92;0.47;;;9.20;52.50;;;;;;5026578;28;20060;-76
2023/03/16 10:19:18;;;;;;;3.83;1.02;;;9.00;51.80;;;;;;5054104;28;20021;-77
2023/03/16 10:21:45;;;;;;;1.85;0.40;;;8.90;52.20;;;;;;5052557;28;20029;-76
2023/03/16 10:24:40;;;;;;;0.95;0.85;;;8.90;52.00;;;;;;5052491;28;20020;-76
2023/03/16 10:27:13;;;;;;;1.00;1.00;;;9.10;50.80;;;;;;5000976;28;20094;-76
2023/03/16 10:29:40;;;;;;;0.60;0.60;;;9.10;50.70;;;;;;5054940;28;20216;-77
2023/03/16 10:32:15;;;;;;;1.08;0.73;;;9.10;50.40;;;;;;5055047;28;20090;-76
2023/03/16 10:34:55;;;;;;;2.15;0.77;;;8.80;47.90;;;;;;5055207;28;20088;-76
2023/03/16 10:37:23;;;;;;;3.35;0.57;;;8.70;47.70;;;;;;5053033;28;20482;-76
2023/03/16 10:39:49;;;;;;;0.65;0.52;;;8.70;46.20;;;;;;5063473;28;20036;-75
2023/03/16 10:42:17;;;;;;;0.90;0.60;;;8.50;45.30;;;;;;5071564;28;20085;-77
2023/03/16 10:44:44;;;;;;;0.40;0.32;;;8.40;45.80;;;;;;5071192;28;20047;-76
2023/03/16 10:47:23;;;;;;;1.17;0.30;;;8.20;44.30;;;;;;5071539;28;20052;-77
2023/03/16 10:49:50;;;;;;;0.63;0.63;;;8.20;44.40;;;;;;5072195;28;20013;-76
2023/03/16 10:52:41;;;;;;;0.40;0.40;;;8.20;43.80;;;;;;5071708;28;20463;-76
2023/03/16 10:55:19;;;;;;;1.50;0.63;;;8.30;45.40;;;;;;5071332;28;20055;-77
2023/03/16 10:57:52;;;;;;;0.77;0.50;;;8.50;45.40;;;;;;5070391;28;20020;-77
2023/03/16 11:00:27;;;;;;;1.73;0.40;;;8.30;45.10;;;;;;5070400;28;20059;-76
2023/03/16 11:02:55;;;;;;;0.65;0.65;;;8.60;45.30;;;;;;5071590;28;20108;-76
2023/03/16 11:05:24;;;;;;;0.63;0.47;;;8.70;46.50;;;;;;5072564;28;20028;-76
2023/03/16 11:08:13;;;;;;;0.95;0.50;;;8.90;44.50;;;;;;5076219;28;20020;-76
2023/03/16 11:10:45;;;;;;;2.00;0.52;;;8.90;43.90;;;;;;5075940;28;20020;-77
2023/03/16 11:13:18;;;;;;;1.27;0.47;;;8.70;44.40;;;;;;5076043;28;20404;-74
2023/03/16 11:16:00;;;;;;;0.55;0.55;;;8.70;44.50;;;;;;5076300;28;20017;-75
2023/03/16 11:18:52;;;;;;;0.50;0.38;;;8.70;44.40;;;;;;5075825;28;20028;-76
2023/03/16 11:21:43;;;;;;;0.85;0.60;;;8.60;43.90;;;;;;5075495;28;20084;-75
2023/03/16 11:24:28;;;;;;;4.28;2.60;;;8.70;43.30;;;;;;5076054;28;20040;-74
2023/03/16 11:26:57;;;;;;;1.05;0.60;;;9.00;44.10;;;;;;5075615;28;20481;-75
2023/03/16 11:29:40;;;;;;;1.35;0.40;;;9.20;42.70;;;;;;5075438;28;20056;-77
2023/03/16 11:32:14;;;;;;;0.60;0.60;;;9.20;44.10;;;;;;5075933;28;20024;-76
2023/03/16 11:34:42;;;;;;;0.35;0.30;;;9.10;43.50;;;;;;5076246;28;20016;-75
2023/03/16 11:37:22;;;;;;;3.63;0.60;;;9.10;43.70;;;;;;5075217;28;20039;-76
2023/03/16 11:40:14;;;;;;;2.72;0.60;;;9.10;44.70;;;;;;5075225;28;20031;-74
2023/03/16 11:43:11;;;;;;;4.75;0.50;;;9.20;44.50;;;;;;5075398;28;20063;-74
2023/03/16 11:45:42;;;;;;;;;;;9.30;42.60;;;;;;5075685;28;20020;-75
2023/03/16 11:48:26;;;;;;;1.20;0.38;;;9.30;41.20;;;;;;5075194;28;19911;-75
2023/03/16 11:50:58;;;;;;;1.02;0.52;;;9.20;41.80;;;;;;5075367;28;20059;-73
2023/03/16 11:53:30;;;;;;;0.40;0.30;;;9.30;42.60;;;;;;5075842;28;20024;-75
2023/03/16 11:56:21;;;;;;;2.67;0.60;;;9.30;41.90;;;;;;5075507;28;20054;-75
2023/03/16 11:59:06;;;;;;;0.35;0.35;;;9.40;43.20;;;;;;5075407;28;20497;-74
2023/03/16 12:02:21;;;;;;;1.30;0.70;;;9.40;42.20;;;;;;5076010;28;20025;-76
2023/03/16 12:05:18;;;;;;;1.30;0.98;;;9.50;42.50;;;;;;5066231;28;20036;-73
2023/03/16 12:08:24;;;;;;;2.50;0.38;;;9.60;42.50;;;;;;5074656;28;20513;-74
2023/03/16 12:11:11;;;;;;;1.10;0.30;;;9.60;40.60;;;;;;5074971;28;20039;-74
2023/03/16 12:13:54;;;;;;;0.50;0.43;;;9.70;41.50;;;;;;5074641;28;20392;-75
2023/03/16 12:16:29;;;;;;;3.20;0.45;;;9.90;40.60;;;;;;5074193;28;20021;-74
2023/03/16 12:19:00;;;;;;;0.73;0.60;;;9.70;39.00;;;;;;5073214;28;20052;-74
2023/03/16 12:21:41;;;;;;;1.23;0.63;;;9.70;39.10;;;;;;5074908;28;20036;-75
2023/03/16 12:24:17;;;;;;;0.35;0.32;;;9.50;40.20;;;;;;5073759;28;20385;-75
2023/03/16 12:26:44;;;;;;;1.95;0.40;;;9.50;40.60;;;;;;5073498;28;20024;-76
2023/03/16 12:29:57;;;;;;;1.00;0.50;;;9.60;40.40;;;;;;5073974;28;20028;-75
2023/03/16 12:32:38;;;;;;;1.52;0.50;;;9.60;40.20;;;;;;5073911;28;20555;-75
2023/03/16 12:35:45;;;;;;;0.38;0.30;;;9.90;39.30;;;;;;5073795;28;20025;-75
2023/03/16 12:38:29;;;;;;;0.82;0.38;;;9.90;38.90;;;;;;5073402;28;20626;-74
2023/03/16 12:41:09;;;;;;;2.38;1.02;;;9.80;39.20;;;;;;5073781;28;20051;-76
2023/03/16 12:43:56;;;;;;;4.03;2.00;;;9.90;39.10;;;;;;5073964;28;20153;-74
2023/03/16 12:46:37;;;;;;;11.77;6.20;;;9.90;38.80;;;;;;5074228;28;20013;-74
2023/03/16 12:49:05;;;;;;;2.63;1.67;;;10.10;39.50;;;;;;5073296;28;20028;-74
2023/03/16 12:51:42;;;;;;;0.82;0.45;;;10.20;38.30;;;;;;5073800;28;20048;-75
2023/03/16 12:54:28;;;;;;;1.15;0.80;;;10.10;38.00;;;;;;5073816;28;20021;-74
2023/03/16 12:57:14;;;;;;;;;;;10.10;37.50;;;;;;5073587;28;20028;-74
2023/03/16 12:59:46;;;;;;;1.92;0.40;;;10.00;37.50;;;;;;5073626;28;19908;-75
2023/03/16 13:02:20;;;;;;;0.32;0.30;;;10.10;37.20;;;;;;5073292;28;20091;-75
2023/03/16 13:04:48;;;;;;;3.33;1.30;;;10.10;38.30;;;;;;5072284;28;20028;-75
2023/03/16 13:07:23;;;;;;;1.10;0.60;;;10.30;38.60;;;;;;5071622;28;20029;-75
2023/03/16 13:10:13;;;;;;;0.33;0.30;;;10.30;37.30;;;;;;5072390;28;20028;-74